sensor_id;sensor_type;location;lat;lon;timestamp;P1;durP1;ratioP1;P2;durP2;ratioP2
39102;SDS011;24847;48.218;16.414;2023-12-28T00:01:31;9.40;;;6.95;;
39102;SDS011;24847;48.218;16.414;2023-12-28T00:06:34;7.30;;;6.55;;
39102;SDS011;24847;48.218;16.414;2023-12-28T00:11:41;8.98;;;7.30;;
39102;SDS011;24847;48.218;16.414;2023-12-28T00:16:43;9.48;;;7.22;;
39102;SDS011;24847;48.218;16.414;2023-12-28T00:21:46;9.27;;;7.45;;
39102;SDS011;24847;48.218;16.414;2023-12-28T00:26:49;8.50;;;7.13;;
39102;SDS011;24847;48.218;16.414;2023-12-28T00:31:51;8.68;;;7.13;;
39102;SDS011;24847;48.218;16.414;2023-12-28T00:36:53;9.38;;;7.82;;
39102;SDS011;24847;48.218;16.414;2023-12-28T00:41:57;8.95;;;7.25;;
39102;SDS011;24847;48.218;16.414;2023-12-28T00:47:00;8.85;;;7.32;;
39102;SDS011;24847;48.218;16.414;2023-12-28T00:52:02;9.02;;;7.55;;
39102;SDS011;24847;48.218;16.414;2023-12-28T00:57:07;9.10;;;7.15;;
39102;SDS011;24847;48.218;16.414;2023-12-28T01:02:09;9.43;;;7.90;;
39102;SDS011;24847;48.218;16.414;2023-12-28T01:07:11;8.65;;;7.32;;
39102;SDS011;24847;48.218;16.414;2023-12-28T01:12:14;10.50;;;7.38;;
39102;SDS011;24847;48.218;16.414;2023-12-28T01:17:17;9.18;;;7.72;;
39102;SDS011;24847;48.218;16.414;2023-12-28T01:22:20;8.40;;;7.50;;
39102;SDS011;24847;48.218;16.414;2023-12-28T01:27:23;9.40;;;7.88;;
39102;SDS011;24847;48.218;16.414;2023-12-28T01:32:28;8.90;;;7.13;;
39102;SDS011;24847;48.218;16.414;2023-12-28T01:37:30;9.55;;;7.57;;
39102;SDS011;24847;48.218;16.414;2023-12-28T01:42:35;9.23;;;6.80;;
39102;SDS011;24847;48.218;16.414;2023-12-28T01:47:37;10.27;;;7.22;;
39102;SDS011;24847;48.218;16.414;2023-12-28T01:52:39;9.75;;;7.20;;
39102;SDS011;24847;48.218;16.414;2023-12-28T01:57:43;10.07;;;7.38;;
39102;SDS011;24847;48.218;16.414;2023-12-28T02:02:47;8.68;;;6.90;;
39102;SDS011;24847;48.218;16.414;2023-12-28T02:07:49;7.82;;;6.88;;
39102;SDS011;24847;48.218;16.414;2023-12-28T02:12:53;8.60;;;7.40;;
39102;SDS011;24847;48.218;16.414;2023-12-28T02:17:58;8.75;;;7.10;;
39102;SDS011;24847;48.218;16.414;2023-12-28T02:23:03;9.32;;;8.25;;
39102;SDS011;24847;48.218;16.414;2023-12-28T02:28:07;8.45;;;7.53;;
39102;SDS011;24847;48.218;16.414;2023-12-28T02:33:11;9.13;;;7.78;;
39102;SDS011;24847;48.218;16.414;2023-12-28T02:38:20;11.80;;;9.40;;
39102;SDS011;24847;48.218;16.414;2023-12-28T02:43:28;12.07;;;9.43;;
39102;SDS011;24847;48.218;16.414;2023-12-28T02:48:30;12.75;;;9.93;;
39102;SDS011;24847;48.218;16.414;2023-12-28T02:53:34;12.73;;;9.80;;
39102;SDS011;24847;48.218;16.414;2023-12-28T02:58:38;12.48;;;9.13;;
39102;SDS011;24847;48.218;16.414;2023-12-28T03:03:44;13.90;;;10.07;;
39102;SDS011;24847;48.218;16.414;2023-12-28T03:08:47;12.60;;;9.73;;
39102;SDS011;24847;48.218;16.414;2023-12-28T03:13:51;12.85;;;10.35;;
39102;SDS011;24847;48.218;16.414;2023-12-28T03:18:53;14.15;;;10.57;;
39102;SDS011;24847;48.218;16.414;2023-12-28T03:23:55;13.43;;;10.60;;
39102;SDS011;24847;48.218;16.414;2023-12-28T03:28:58;14.70;;;11.60;;
39102;SDS011;24847;48.218;16.414;2023-12-28T03:34:03;18.13;;;13.25;;
39102;SDS011;24847;48.218;16.414;2023-12-28T03:39:06;16.48;;;13.20;;
39102;SDS011;24847;48.218;16.414;2023-12-28T03:44:10;17.92;;;13.40;;
39102;SDS011;24847;48.218;16.414;2023-12-28T03:49:14;17.13;;;12.85;;
39102;SDS011;24847;48.218;16.414;2023-12-28T03:54:17;20.42;;;13.18;;
39102;SDS011;24847;48.218;16.414;2023-12-28T03:59:21;20.48;;;13.70;;
39102;SDS011;24847;48.218;16.414;2023-12-28T04:04:24;17.20;;;13.23;;
39102;SDS011;24847;48.218;16.414;2023-12-28T04:09:26;15.43;;;11.18;;
39102;SDS011;24847;48.218;16.414;2023-12-28T04:14:29;17.20;;;12.40;;
39102;SDS011;24847;48.218;16.414;2023-12-28T04:19:32;14.65;;;11.32;;
39102;SDS011;24847;48.218;16.414;2023-12-28T04:24:34;20.10;;;14.32;;
39102;SDS011;24847;48.218;16.414;2023-12-28T04:29:39;27.58;;;19.05;;
39102;SDS011;24847;48.218;16.414;2023-12-28T04:34:43;23.35;;;17.17;;
39102;SDS011;24847;48.218;16.414;2023-12-28T04:39:45;19.02;;;13.65;;
39102;SDS011;24847;48.218;16.414;2023-12-28T04:44:49;15.35;;;12.25;;
39102;SDS011;24847;48.218;16.414;2023-12-28T04:49:51;17.02;;;13.05;;
39102;SDS011;24847;48.218;16.414;2023-12-28T04:54:53;16.60;;;12.75;;
39102;SDS011;24847;48.218;16.414;2023-12-28T04:59:57;15.80;;;11.95;;
39102;SDS011;24847;48.218;16.414;2023-12-28T05:05:00;16.13;;;12.40;;
39102;SDS011;24847;48.218;16.414;2023-12-28T05:10:05;19.63;;;13.63;;
39102;SDS011;24847;48.218;16.414;2023-12-28T05:15:10;21.98;;;14.77;;
39102;SDS011;24847;48.218;16.414;2023-12-28T05:20:14;20.98;;;14.43;;
39102;SDS011;24847;48.218;16.414;2023-12-28T05:25:17;22.63;;;14.45;;
39102;SDS011;24847;48.218;16.414;2023-12-28T05:30:21;22.65;;;14.55;;
39102;SDS011;24847;48.218;16.414;2023-12-28T05:35:23;20.52;;;14.55;;
39102;SDS011;24847;48.218;16.414;2023-12-28T05:40:28;18.95;;;14.40;;
39102;SDS011;24847;48.218;16.414;2023-12-28T05:45:31;22.67;;;15.80;;
39102;SDS011;24847;48.218;16.414;2023-12-28T05:50:33;20.95;;;15.07;;
39102;SDS011;24847;48.218;16.414;2023-12-28T05:55:37;21.05;;;14.93;;
39102;SDS011;24847;48.218;16.414;2023-12-28T06:00:40;21.83;;;15.38;;
39102;SDS011;24847;48.218;16.414;2023-12-28T06:05:43;22.60;;;15.27;;
39102;SDS011;24847;48.218;16.414;2023-12-28T06:10:45;23.38;;;14.85;;
39102;SDS011;24847;48.218;16.414;2023-12-28T06:15:49;22.05;;;15.23;;
39102;SDS011;24847;48.218;16.414;2023-12-28T06:20:51;23.15;;;14.45;;
39102;SDS011;24847;48.218;16.414;2023-12-28T06:25:54;19.98;;;14.90;;
39102;SDS011;24847;48.218;16.414;2023-12-28T06:30:58;19.92;;;13.63;;
39102;SDS011;24847;48.218;16.414;2023-12-28T06:36:04;17.63;;;13.48;;
39102;SDS011;24847;48.218;16.414;2023-12-28T06:41:11;18.30;;;12.70;;
39102;SDS011;24847;48.218;16.414;2023-12-28T06:46:15;17.73;;;13.48;;
39102;SDS011;24847;48.218;16.414;2023-12-28T06:51:18;16.65;;;12.65;;
39102;SDS011;24847;48.218;16.414;2023-12-28T06:56:22;17.10;;;12.60;;
39102;SDS011;24847;48.218;16.414;2023-12-28T07:01:27;16.63;;;12.63;;
39102;SDS011;24847;48.218;16.414;2023-12-28T07:06:29;16.02;;;12.52;;
39102;SDS011;24847;48.218;16.414;2023-12-28T07:11:31;16.63;;;12.20;;
39102;SDS011;24847;48.218;16.414;2023-12-28T07:16:35;18.25;;;13.48;;
39102;SDS011;24847;48.218;16.414;2023-12-28T07:21:40;19.83;;;13.52;;
39102;SDS011;24847;48.218;16.414;2023-12-28T07:26:42;14.98;;;11.02;;
39102;SDS011;24847;48.218;16.414;2023-12-28T07:31:46;15.23;;;11.68;;
39102;SDS011;24847;48.218;16.414;2023-12-28T07:36:48;18.65;;;12.02;;
39102;SDS011;24847;48.218;16.414;2023-12-28T07:41:53;16.02;;;11.40;;
39102;SDS011;24847;48.218;16.414;2023-12-28T07:46:56;14.93;;;11.13;;
39102;SDS011;24847;48.218;16.414;2023-12-28T07:51:58;17.63;;;12.38;;
39102;SDS011;24847;48.218;16.414;2023-12-28T07:57:00;16.58;;;12.10;;
39102;SDS011;24847;48.218;16.414;2023-12-28T08:02:04;16.45;;;11.85;;
39102;SDS011;24847;48.218;16.414;2023-12-28T08:07:08;16.35;;;11.52;;
39102;SDS011;24847;48.218;16.414;2023-12-28T08:12:11;16.38;;;12.05;;
39102;SDS011;24847;48.218;16.414;2023-12-28T08:17:14;17.95;;;12.93;;
39102;SDS011;24847;48.218;16.414;2023-12-28T08:22:16;17.17;;;13.25;;
39102;SDS011;24847;48.218;16.414;2023-12-28T08:27:18;20.08;;;13.65;;
39102;SDS011;24847;48.218;16.414;2023-12-28T08:32:22;19.63;;;13.55;;
39102;SDS011;24847;48.218;16.414;2023-12-28T08:37:24;20.40;;;13.63;;
39102;SDS011;24847;48.218;16.414;2023-12-28T08:42:26;18.80;;;12.77;;
39102;SDS011;24847;48.218;16.414;2023-12-28T08:47:31;16.70;;;11.52;;
39102;SDS011;24847;48.218;16.414;2023-12-28T08:52:34;18.15;;;12.25;;
39102;SDS011;24847;48.218;16.414;2023-12-28T08:57:36;17.63;;;11.93;;
39102;SDS011;24847;48.218;16.414;2023-12-28T09:02:41;17.60;;;11.95;;
39102;SDS011;24847;48.218;16.414;2023-12-28T09:07:46;20.65;;;12.82;;
39102;SDS011;24847;48.218;16.414;2023-12-28T09:12:48;18.85;;;12.05;;
39102;SDS011;24847;48.218;16.414;2023-12-28T09:17:52;18.63;;;11.90;;
39102;SDS011;24847;48.218;16.414;2023-12-28T09:22:54;17.98;;;12.55;;
39102;SDS011;24847;48.218;16.414;2023-12-28T09:27:56;18.63;;;12.27;;
39102;SDS011;24847;48.218;16.414;2023-12-28T09:33:02;18.67;;;12.45;;
39102;SDS011;24847;48.218;16.414;2023-12-28T09:38:05;17.73;;;11.88;;
39102;SDS011;24847;48.218;16.414;2023-12-28T09:43:07;17.13;;;11.63;;
39102;SDS011;24847;48.218;16.414;2023-12-28T09:48:18;17.00;;;10.95;;
39102;SDS011;24847;48.218;16.414;2023-12-28T09:53:22;15.82;;;11.05;;
39102;SDS011;24847;48.218;16.414;2023-12-28T09:58:24;16.85;;;11.25;;
39102;SDS011;24847;48.218;16.414;2023-12-28T10:03:29;18.98;;;12.70;;
39102;SDS011;24847;48.218;16.414;2023-12-28T10:08:33;19.00;;;13.82;;
39102;SDS011;24847;48.218;16.414;2023-12-28T10:13:36;17.73;;;12.10;;
39102;SDS011;24847;48.218;16.414;2023-12-28T10:18:41;16.75;;;12.05;;
39102;SDS011;24847;48.218;16.414;2023-12-28T10:23:43;18.58;;;12.32;;
39102;SDS011;24847;48.218;16.414;2023-12-28T10:28:46;17.10;;;11.90;;
39102;SDS011;24847;48.218;16.414;2023-12-28T10:33:50;17.25;;;11.95;;
39102;SDS011;24847;48.218;16.414;2023-12-28T10:38:52;19.48;;;13.00;;
39102;SDS011;24847;48.218;16.414;2023-12-28T10:44:01;16.02;;;11.98;;
39102;SDS011;24847;48.218;16.414;2023-12-28T10:49:10;14.50;;;11.48;;
39102;SDS011;24847;48.218;16.414;2023-12-28T10:54:18;17.05;;;12.82;;
39102;SDS011;24847;48.218;16.414;2023-12-28T10:59:35;14.18;;;10.88;;
39102;SDS011;24847;48.218;16.414;2023-12-28T11:04:47;17.73;;;12.02;;
39102;SDS011;24847;48.218;16.414;2023-12-28T11:09:52;13.95;;;11.15;;
39102;SDS011;24847;48.218;16.414;2023-12-28T11:14:56;14.85;;;10.27;;
39102;SDS011;24847;48.218;16.414;2023-12-28T11:20:02;15.63;;;11.02;;
39102;SDS011;24847;48.218;16.414;2023-12-28T11:25:14;14.52;;;10.45;;
39102;SDS011;24847;48.218;16.414;2023-12-28T11:35:22;14.88;;;11.20;;
39102;SDS011;24847;48.218;16.414;2023-12-28T11:40:24;14.82;;;10.27;;
39102;SDS011;24847;48.218;16.414;2023-12-28T11:45:27;14.43;;;10.32;;
39102;SDS011;24847;48.218;16.414;2023-12-28T11:50:34;14.00;;;10.50;;
39102;SDS011;24847;48.218;16.414;2023-12-28T11:55:36;13.77;;;9.32;;
39102;SDS011;24847;48.218;16.414;2023-12-28T12:00:39;15.25;;;10.02;;
39102;SDS011;24847;48.218;16.414;2023-12-28T12:05:43;13.02;;;10.05;;
39102;SDS011;24847;48.218;16.414;2023-12-28T12:10:45;14.52;;;10.48;;
39102;SDS011;24847;48.218;16.414;2023-12-28T12:15:50;15.10;;;10.40;;
39102;SDS011;24847;48.218;16.414;2023-12-28T12:20:53;14.05;;;10.10;;
39102;SDS011;24847;48.218;16.414;2023-12-28T12:25:57;13.38;;;9.20;;
39102;SDS011;24847;48.218;16.414;2023-12-28T12:30:59;13.52;;;10.13;;
39102;SDS011;24847;48.218;16.414;2023-12-28T12:36:04;13.30;;;9.85;;
39102;SDS011;24847;48.218;16.414;2023-12-28T12:41:09;15.20;;;10.68;;
39102;SDS011;24847;48.218;16.414;2023-12-28T12:46:13;13.93;;;9.40;;
39102;SDS011;24847;48.218;16.414;2023-12-28T12:51:16;15.48;;;9.85;;
39102;SDS011;24847;48.218;16.414;2023-12-28T12:56:20;13.05;;;9.00;;
39102;SDS011;24847;48.218;16.414;2023-12-28T13:01:22;13.18;;;9.27;;
39102;SDS011;24847;48.218;16.414;2023-12-28T13:06:27;11.23;;;8.15;;
39102;SDS011;24847;48.218;16.414;2023-12-28T13:11:29;11.60;;;8.52;;
39102;SDS011;24847;48.218;16.414;2023-12-28T13:16:32;12.30;;;8.73;;
39102;SDS011;24847;48.218;16.414;2023-12-28T13:21:37;12.50;;;8.88;;
39102;SDS011;24847;48.218;16.414;2023-12-28T13:26:39;12.88;;;8.98;;
39102;SDS011;24847;48.218;16.414;2023-12-28T13:31:45;12.18;;;8.80;;
39102;SDS011;24847;48.218;16.414;2023-12-28T13:36:51;11.57;;;8.30;;
39102;SDS011;24847;48.218;16.414;2023-12-28T13:41:53;12.82;;;9.32;;
39102;SDS011;24847;48.218;16.414;2023-12-28T13:46:56;11.35;;;8.57;;
39102;SDS011;24847;48.218;16.414;2023-12-28T13:52:00;14.25;;;9.52;;
39102;SDS011;24847;48.218;16.414;2023-12-28T13:57:02;11.75;;;8.68;;
39102;SDS011;24847;48.218;16.414;2023-12-28T14:02:05;13.13;;;8.82;;
39102;SDS011;24847;48.218;16.414;2023-12-28T14:07:09;11.02;;;8.15;;
39102;SDS011;24847;48.218;16.414;2023-12-28T14:12:11;10.95;;;8.32;;
39102;SDS011;24847;48.218;16.414;2023-12-28T14:17:13;11.27;;;8.52;;
39102;SDS011;24847;48.218;16.414;2023-12-28T14:22:21;12.23;;;8.80;;
39102;SDS011;24847;48.218;16.414;2023-12-28T14:27:24;13.77;;;9.68;;
39102;SDS011;24847;48.218;16.414;2023-12-28T14:32:27;12.10;;;8.98;;
39102;SDS011;24847;48.218;16.414;2023-12-28T14:37:38;12.88;;;9.18;;
39102;SDS011;24847;48.218;16.414;2023-12-28T14:42:40;11.95;;;9.02;;
39102;SDS011;24847;48.218;16.414;2023-12-28T14:47:45;13.95;;;9.93;;
39102;SDS011;24847;48.218;16.414;2023-12-28T14:52:49;12.35;;;9.50;;
39102;SDS011;24847;48.218;16.414;2023-12-28T14:57:51;13.50;;;9.18;;
39102;SDS011;24847;48.218;16.414;2023-12-28T15:02:53;13.05;;;9.05;;
39102;SDS011;24847;48.218;16.414;2023-12-28T15:07:56;13.27;;;10.05;;
39102;SDS011;24847;48.218;16.414;2023-12-28T15:12:59;15.90;;;10.32;;
39102;SDS011;24847;48.218;16.414;2023-12-28T15:18:05;16.73;;;11.38;;
39102;SDS011;24847;48.218;16.414;2023-12-28T15:23:10;15.98;;;10.85;;
39102;SDS011;24847;48.218;16.414;2023-12-28T15:28:13;17.05;;;11.77;;
39102;SDS011;24847;48.218;16.414;2023-12-28T15:33:15;12.73;;;9.43;;
39102;SDS011;24847;48.218;16.414;2023-12-28T15:38:19;14.45;;;10.82;;
39102;SDS011;24847;48.218;16.414;2023-12-28T15:43:21;15.50;;;10.50;;
39102;SDS011;24847;48.218;16.414;2023-12-28T15:48:23;15.90;;;11.07;;
39102;SDS011;24847;48.218;16.414;2023-12-28T15:53:27;16.98;;;11.68;;
39102;SDS011;24847;48.218;16.414;2023-12-28T15:58:29;18.30;;;12.70;;
39102;SDS011;24847;48.218;16.414;2023-12-28T16:03:31;19.02;;;13.15;;
39102;SDS011;24847;48.218;16.414;2023-12-28T16:08:35;17.25;;;12.27;;
39102;SDS011;24847;48.218;16.414;2023-12-28T16:13:38;15.60;;;11.25;;
39102;SDS011;24847;48.218;16.414;2023-12-28T16:18:43;16.65;;;11.73;;
39102;SDS011;24847;48.218;16.414;2023-12-28T16:23:47;14.00;;;10.20;;
39102;SDS011;24847;48.218;16.414;2023-12-28T16:28:52;16.10;;;11.70;;
39102;SDS011;24847;48.218;16.414;2023-12-28T16:33:57;14.35;;;10.68;;
39102;SDS011;24847;48.218;16.414;2023-12-28T16:39:01;13.20;;;9.88;;
39102;SDS011;24847;48.218;16.414;2023-12-28T16:44:03;16.55;;;11.80;;
39102;SDS011;24847;48.218;16.414;2023-12-28T16:49:05;13.98;;;10.57;;
39102;SDS011;24847;48.218;16.414;2023-12-28T16:54:10;15.75;;;11.27;;
39102;SDS011;24847;48.218;16.414;2023-12-28T16:59:15;18.30;;;12.52;;
39102;SDS011;24847;48.218;16.414;2023-12-28T17:04:17;17.83;;;12.70;;
39102;SDS011;24847;48.218;16.414;2023-12-28T17:09:24;20.48;;;14.75;;
39102;SDS011;24847;48.218;16.414;2023-12-28T17:14:27;19.88;;;13.30;;
39102;SDS011;24847;48.218;16.414;2023-12-28T17:19:30;20.58;;;14.35;;
39102;SDS011;24847;48.218;16.414;2023-12-28T17:24:36;16.63;;;11.93;;
39102;SDS011;24847;48.218;16.414;2023-12-28T17:29:48;17.83;;;12.02;;
39102;SDS011;24847;48.218;16.414;2023-12-28T17:34:53;14.45;;;10.70;;
39102;SDS011;24847;48.218;16.414;2023-12-28T17:39:57;15.48;;;10.57;;
39102;SDS011;24847;48.218;16.414;2023-12-28T17:45:00;13.40;;;10.05;;
39102;SDS011;24847;48.218;16.414;2023-12-28T17:50:05;14.35;;;10.68;;
39102;SDS011;24847;48.218;16.414;2023-12-28T17:55:11;15.05;;;10.23;;
39102;SDS011;24847;48.218;16.414;2023-12-28T18:00:14;14.32;;;10.70;;
39102;SDS011;24847;48.218;16.414;2023-12-28T18:05:17;14.93;;;11.50;;
39102;SDS011;24847;48.218;16.414;2023-12-28T18:10:21;16.65;;;12.02;;
39102;SDS011;24847;48.218;16.414;2023-12-28T18:15:23;16.90;;;12.43;;
39102;SDS011;24847;48.218;16.414;2023-12-28T18:20:25;15.55;;;11.90;;
39102;SDS011;24847;48.218;16.414;2023-12-28T18:25:30;15.60;;;11.70;;
39102;SDS011;24847;48.218;16.414;2023-12-28T18:30:32;14.15;;;11.07;;
39102;SDS011;24847;48.218;16.414;2023-12-28T18:35:35;14.88;;;11.02;;
39102;SDS011;24847;48.218;16.414;2023-12-28T18:40:40;14.15;;;11.30;;
39102;SDS011;24847;48.218;16.414;2023-12-28T18:45:47;15.30;;;11.27;;
39102;SDS011;24847;48.218;16.414;2023-12-28T18:50:50;16.27;;;11.68;;
39102;SDS011;24847;48.218;16.414;2023-12-28T18:55:55;22.23;;;16.08;;
39102;SDS011;24847;48.218;16.414;2023-12-28T19:00:58;17.63;;;13.20;;
39102;SDS011;24847;48.218;16.414;2023-12-28T19:06:04;13.55;;;10.70;;
39102;SDS011;24847;48.218;16.414;2023-12-28T19:11:11;14.38;;;11.25;;
39102;SDS011;24847;48.218;16.414;2023-12-28T19:16:16;15.05;;;10.90;;
39102;SDS011;24847;48.218;16.414;2023-12-28T19:21:22;13.90;;;10.75;;
39102;SDS011;24847;48.218;16.414;2023-12-28T19:26:29;14.55;;;11.18;;
39102;SDS011;24847;48.218;16.414;2023-12-28T19:31:34;14.50;;;11.32;;
39102;SDS011;24847;48.218;16.414;2023-12-28T19:36:38;12.88;;;9.95;;
39102;SDS011;24847;48.218;16.414;2023-12-28T19:41:44;12.70;;;10.38;;
39102;SDS011;24847;48.218;16.414;2023-12-28T19:46:51;13.18;;;10.10;;
39102;SDS011;24847;48.218;16.414;2023-12-28T19:51:56;11.27;;;9.23;;
39102;SDS011;24847;48.218;16.414;2023-12-28T19:57:01;12.10;;;9.85;;
39102;SDS011;24847;48.218;16.414;2023-12-28T20:02:04;12.52;;;10.00;;
39102;SDS011;24847;48.218;16.414;2023-12-28T20:07:09;10.93;;;9.07;;
39102;SDS011;24847;48.218;16.414;2023-12-28T20:12:15;10.93;;;9.15;;
39102;SDS011;24847;48.218;16.414;2023-12-28T20:17:18;10.70;;;9.10;;
39102;SDS011;24847;48.218;16.414;2023-12-28T20:22:23;10.18;;;8.88;;
39102;SDS011;24847;48.218;16.414;2023-12-28T20:27:28;10.13;;;8.05;;
39102;SDS011;24847;48.218;16.414;2023-12-28T20:32:34;10.40;;;8.70;;
39102;SDS011;24847;48.218;16.414;2023-12-28T20:37:37;10.77;;;8.77;;
39102;SDS011;24847;48.218;16.414;2023-12-28T20:42:44;26.42;;;18.25;;
39102;SDS011;24847;48.218;16.414;2023-12-28T20:47:51;27.00;;;18.90;;
39102;SDS011;24847;48.218;16.414;2023-12-28T20:52:56;11.75;;;10.43;;
39102;SDS011;24847;48.218;16.414;2023-12-28T20:58:03;10.55;;;8.60;;
39102;SDS011;24847;48.218;16.414;2023-12-28T21:03:06;10.30;;;8.50;;
39102;SDS011;24847;48.218;16.414;2023-12-28T21:08:09;9.52;;;8.52;;
39102;SDS011;24847;48.218;16.414;2023-12-28T21:13:12;10.07;;;8.45;;
39102;SDS011;24847;48.218;16.414;2023-12-28T21:18:19;10.13;;;8.77;;
39102;SDS011;24847;48.218;16.414;2023-12-28T21:23:21;11.35;;;9.32;;
39102;SDS011;24847;48.218;16.414;2023-12-28T21:28:24;11.02;;;8.00;;
39102;SDS011;24847;48.218;16.414;2023-12-28T21:33:27;9.48;;;8.48;;
39102;SDS011;24847;48.218;16.414;2023-12-28T21:38:29;11.18;;;8.07;;
39102;SDS011;24847;48.218;16.414;2023-12-28T21:43:33;9.75;;;8.48;;
39102;SDS011;24847;48.218;16.414;2023-12-28T21:48:35;10.18;;;8.90;;
39102;SDS011;24847;48.218;16.414;2023-12-28T21:53:38;11.57;;;9.07;;
39102;SDS011;24847;48.218;16.414;2023-12-28T21:58:41;10.15;;;8.70;;
39102;SDS011;24847;48.218;16.414;2023-12-28T22:03:49;9.55;;;8.27;;
39102;SDS011;24847;48.218;16.414;2023-12-28T22:08:51;10.05;;;8.27;;
39102;SDS011;24847;48.218;16.414;2023-12-28T22:13:56;9.88;;;8.35;;
39102;SDS011;24847;48.218;16.414;2023-12-28T22:18:59;9.68;;;8.00;;
39102;SDS011;24847;48.218;16.414;2023-12-28T22:24:02;9.50;;;8.38;;
39102;SDS011;24847;48.218;16.414;2023-12-28T22:29:05;9.38;;;7.90;;
39102;SDS011;24847;48.218;16.414;2023-12-28T22:34:10;8.68;;;7.38;;
39102;SDS011;24847;48.218;16.414;2023-12-28T22:39:16;10.00;;;8.65;;
39102;SDS011;24847;48.218;16.414;2023-12-28T22:44:21;9.55;;;8.48;;
39102;SDS011;24847;48.218;16.414;2023-12-28T22:49:23;10.32;;;8.70;;
39102;SDS011;24847;48.218;16.414;2023-12-28T22:54:26;13.52;;;10.18;;
39102;SDS011;24847;48.218;16.414;2023-12-28T22:59:30;10.40;;;9.07;;
39102;SDS011;24847;48.218;16.414;2023-12-28T23:04:32;10.18;;;8.98;;
39102;SDS011;24847;48.218;16.414;2023-12-28T23:09:34;9.73;;;8.73;;
39102;SDS011;24847;48.218;16.414;2023-12-28T23:14:38;9.82;;;8.82;;
39102;SDS011;24847;48.218;16.414;2023-12-28T23:19:41;10.32;;;9.23;;
39102;SDS011;24847;48.218;16.414;2023-12-28T23:24:45;10.80;;;8.95;;
39102;SDS011;24847;48.218;16.414;2023-12-28T23:29:48;11.55;;;9.38;;
39102;SDS011;24847;48.218;16.414;2023-12-28T23:34:51;10.02;;;8.45;;
39102;SDS011;24847;48.218;16.414;2023-12-28T23:39:56;10.38;;;9.15;;
39102;SDS011;24847;48.218;16.414;2023-12-28T23:45:06;10.48;;;8.90;;
39102;SDS011;24847;48.218;16.414;2023-12-28T23:50:10;10.30;;;8.65;;
39102;SDS011;24847;48.218;16.414;2023-12-28T23:55:12;10.15;;;8.73;;
